Time;durP1;ratioP1;P1;durP2;ratioP2;P2;SDS_P1;SDS_P2;PMS_P1;PMS_P2;Temp;Humidity;BMP_temperature;BMP_pressure;BME280_temperature;BME280_humidity;BME280_pressure;Samples;Min_cycle;Max_cycle;Signal;HPM_P1;HPM_P2
2022/06/27 00:01:31;;;;;;;8.40;3.73;;;;;;;;;;7366438;19;20895;-77
2022/06/27 00:03:57;;;;;;;13.50;3.45;;;;;;;;;;7371443;19;20271;-74
2022/06/27 00:06:22;;;;;;;7.03;3.05;;;;;;;;;;7371455;19;20018;-76
2022/06/27 00:08:48;;;;;;;13.43;3.30;;;;;;;;;;7366748;19;20039;-76
2022/06/27 00:11:13;;;;;;;6.28;3.20;;;;;;;;;;7369098;19;20512;-75
2022/06/27 00:13:38;;;;;;;7.18;3.33;;;;;;;;;;7370799;19;20023;-74
2022/06/27 00:16:04;;;;;;;6.80;3.78;;;;;;;;;;7367663;19;20340;-76
2022/06/27 00:18:29;;;;;;;7.13;3.65;;;;;;;;;;7366913;19;20023;-76
2022/06/27 00:20:54;;;;;;;7.13;3.73;;;;;;;;;;7368549;19;20018;-74
2022/06/27 00:23:19;;;;;;;7.82;3.75;;;;;;;;;;7369944;19;20273;-75
2022/06/27 00:25:45;;;;;;;8.10;3.60;;;;;;;;;;7373107;19;20021;-75
2022/06/27 00:28:10;;;;;;;6.88;3.25;;;;;;;;;;7369210;19;20073;-76
2022/06/27 00:30:35;;;;;;;7.60;2.93;;;;;;;;;;7370869;19;20015;-76
2022/06/27 00:33:00;;;;;;;6.63;3.38;;;;;;;;;;7371122;19;20288;-75
2022/06/27 00:35:25;;;;;;;8.27;3.45;;;;;;;;;;7371767;19;19999;-75
2022/06/27 00:37:51;;;;;;;12.52;4.55;;;;;;;;;;7371599;19;20327;-78
2022/06/27 00:40:16;;;;;;;6.15;3.88;;;;;;;;;;7372286;19;20042;-75
2022/06/27 00:42:41;;;;;;;6.97;3.97;;;;;;;;;;7369750;19;20326;-75
2022/06/27 00:45:07;;;;;;;9.15;3.75;;;;;;;;;;7369693;19;20235;-75
2022/06/27 00:47:32;;;;;;;9.85;4.25;;;;;;;;;;7369898;19;20042;-75
2022/06/27 00:49:57;;;;;;;10.98;4.53;;;;;;;;;;7369797;19;20360;-74
2022/06/27 00:52:22;;;;;;;7.82;3.65;;;;;;;;;;7343937;19;20003;-76
2022/06/27 00:54:48;;;;;;;9.40;4.03;;;;;;;;;;7367908;19;20078;-73
2022/06/27 00:57:14;;;;;;;8.23;4.70;;;;;;;;;;7373137;19;20587;-74
2022/06/27 00:59:40;;;;;;;11.30;4.25;;;;;;;;;;7366186;19;20010;-73
2022/06/27 01:02:06;;;;;;;8.43;4.47;;;;;;;;;;7371489;19;20003;-73
2022/06/27 01:04:31;;;;;;;7.40;4.82;;;;;;;;;;7370032;19;20026;-75
2022/06/27 01:06:57;;;;;;;7.78;4.90;;;;;;;;;;7362583;19;20466;-76
2022/06/27 01:09:22;;;;;;;8.63;4.28;;;;;;;;;;7360996;19;20475;-73
2022/06/27 01:11:48;;;;;;;7.50;4.57;;;;;;;;;;7370907;19;19995;-76
2022/06/27 01:14:14;;;;;;;8.35;4.82;;;;;;;;;;7371916;19;20373;-76
2022/06/27 01:16:39;;;;;;;13.20;4.80;;;;;;;;;;7373140;19;20023;-73
2022/06/27 01:19:08;;;;;;;10.45;4.55;;;;;;;;;;7359489;19;20014;-74
2022/06/27 01:21:39;;;;;;;10.75;4.57;;;;;;;;;;7372113;19;20025;-77
2022/06/27 01:24:04;;;;;;;7.70;4.25;;;;;;;;;;7372853;19;20047;-75
2022/06/27 01:26:29;;;;;;;6.82;4.05;;;;;;;;;;7381286;19;20011;-75
2022/06/27 01:28:54;;;;;;;10.05;5.05;;;;;;;;;;7377834;19;20019;-76
2022/06/27 01:31:20;;;;;;;8.05;3.92;;;;;;;;;;7379255;19;20462;-74
2022/06/27 01:33:45;;;;;;;11.48;5.72;;;;;;;;;;7370430;19;20035;-74
2022/06/27 01:38:55;;;;;;;12.10;5.43;;;;;;;;;;7374541;19;20239;-74
2022/06/27 01:41:20;;;;;;;9.27;5.63;;;;;;;;;;7376487;19;20488;-74
2022/06/27 01:43:47;;;;;;;22.15;5.75;;;;;;;;;;7372093;19;20573;-74
2022/06/27 01:46:12;;;;;;;8.80;5.47;;;;;;;;;;7377510;19;20010;-74
2022/06/27 01:48:38;;;;;;;9.40;5.10;;;;;;;;;;7374743;19;20011;-74
2022/06/27 01:51:04;;;;;;;12.73;5.93;;;;;;;;;;7377097;19;20040;-74
2022/06/27 01:53:29;;;;;;;8.77;5.60;;;;;;;;;;7373895;19;19995;-76
2022/06/27 01:55:54;;;;;;;9.13;6.00;;;;;;;;;;7374380;19;20481;-72
2022/06/27 01:58:19;;;;;;;10.18;6.40;;;;;;;;;;7379702;19;20454;-74
2022/06/27 02:00:45;;;;;;;8.65;5.55;;;;;;;;;;7377189;19;20014;-76
2022/06/27 02:03:10;;;;;;;11.50;5.40;;;;;;;;;;7372083;19;19999;-74
2022/06/27 02:05:35;;;;;;;12.03;5.73;;;;;;;;;;7375769;19;20462;-75
2022/06/27 02:08:02;;;;;;;11.85;5.15;;;;;;;;;;7373164;19;20322;-73
2022/06/27 02:10:27;;;;;;;9.73;5.72;;;;;;;;;;7371578;19;20364;-75
2022/06/27 02:12:53;;;;;;;10.63;5.55;;;;;;;;;;7376791;19;20595;-74
2022/06/27 02:15:18;;;;;;;8.63;5.53;;;;;;;;;;7378507;19;20010;-76
2022/06/27 02:17:43;;;;;;;9.03;5.47;;;;;;;;;;7375893;19;20102;-74
2022/06/27 02:20:08;;;;;;;9.93;5.57;;;;;;;;;;7373275;19;20275;-74
2022/06/27 02:22:34;;;;;;;11.02;5.70;;;;;;;;;;7373456;19;20402;-74
2022/06/27 02:24:59;;;;;;;10.40;5.37;;;;;;;;;;7369716;19;20127;-74
2022/06/27 02:27:24;;;;;;;10.88;6.10;;;;;;;;;;7382620;19;20636;-74
2022/06/27 02:29:50;;;;;;;11.27;5.50;;;;;;;;;;7382670;19;20003;-74
2022/06/27 02:32:15;;;;;;;10.68;5.90;;;;;;;;;;7380110;19;20010;-74
2022/06/27 02:34:41;;;;;;;8.20;5.47;;;;;;;;;;7377555;19;20408;-74
2022/06/27 02:37:07;;;;;;;12.02;6.45;;;;;;;;;;7374479;19;20524;-73
2022/06/27 02:39:34;;;;;;;11.00;6.50;;;;;;;;;;7381640;19;19995;-73
2022/06/27 02:42:01;;;;;;;10.05;5.40;;;;;;;;;;7378456;19;20355;-74
2022/06/27 02:44:26;;;;;;;10.65;5.90;;;;;;;;;;7384997;19;20017;-74
2022/06/27 02:46:52;;;;;;;12.40;6.57;;;;;;;;;;7374762;19;20022;-73
2022/06/27 02:49:17;;;;;;;13.88;6.35;;;;;;;;;;7382722;19;20001;-72
2022/06/27 02:51:49;;;;;;;12.45;6.20;;;;;;;;;;7380605;19;20011;-77
2022/06/27 02:54:23;;;;;;;9.00;5.53;;;;;;;;;;7376542;19;19998;-73
2022/06/27 02:56:51;;;;;;;10.43;5.70;;;;;;;;;;7382257;19;20021;-74
2022/06/27 02:59:23;;;;;;;11.48;6.47;;;;;;;;;;7376551;19;19999;-73
2022/06/27 03:01:49;;;;;;;10.02;5.70;;;;;;;;;;7373802;19;20357;-74
2022/06/27 03:04:14;;;;;;;9.65;5.63;;;;;;;;;;7379007;19;20418;-74
2022/06/27 03:06:39;;;;;;;10.02;5.93;;;;;;;;;;7379885;19;20010;-74
2022/06/27 03:09:05;;;;;;;10.47;5.63;;;;;;;;;;7377248;19;20020;-74
2022/06/27 03:11:30;;;;;;;9.07;5.68;;;;;;;;;;7381517;19;20248;-74
2022/06/27 03:13:55;;;;;;;10.27;5.17;;;;;;;;;;7379893;19;20010;-74
2022/06/27 03:16:21;;;;;;;10.93;5.57;;;;;;;;;;7382024;19;20235;-74
2022/06/27 03:18:47;;;;;;;8.93;6.15;;;;;;;;;;7375721;19;20062;-77
2022/06/27 03:21:13;;;;;;;12.50;6.22;;;;;;;;;;7379515;19;20031;-72
2022/06/27 03:23:39;;;;;;;10.10;5.75;;;;;;;;;;7373634;19;19991;-74
2022/06/27 03:26:04;;;;;;;12.68;7.55;;;;;;;;;;7373674;19;20829;-74
2022/06/27 03:28:29;;;;;;;11.77;5.80;;;;;;;;;;7375733;19;20470;-74
2022/06/27 03:30:55;;;;;;;11.57;5.93;;;;;;;;;;7380902;19;20006;-74
2022/06/27 03:33:20;;;;;;;12.70;5.70;;;;;;;;;;7382265;19;20014;-73
2022/06/27 03:35:45;;;;;;;12.30;6.10;;;;;;;;;;7373643;19;19995;-75
2022/06/27 03:38:12;;;;;;;9.25;5.82;;;;;;;;;;7377530;19;20234;-74
2022/06/27 03:40:37;;;;;;;8.02;5.68;;;;;;;;;;7376445;19;20010;-76
2022/06/27 03:43:02;;;;;;;13.27;5.88;;;;;;;;;;7379557;19;20094;-73
2022/06/27 03:45:28;;;;;;;9.13;5.85;;;;;;;;;;7379060;19;20022;-73
2022/06/27 03:47:54;;;;;;;8.52;6.30;;;;;;;;;;7373419;19;20290;-74
2022/06/27 03:50:20;;;;;;;11.63;6.28;;;;;;;;;;7379960;19;20010;-73
2022/06/27 03:52:45;;;;;;;9.10;5.75;;;;;;;;;;7375762;19;20034;-76
2022/06/27 03:55:11;;;;;;;7.60;3.92;;;;;;;;;;7381661;19;20031;-73
2022/06/27 03:57:47;;;;;;;7.20;4.07;;;;;;;;;;7377680;19;20014;-75
2022/06/27 04:00:13;;;;;;;7.72;3.85;;;;;;;;;;7379136;19;20107;-74
2022/06/27 04:02:38;;;;;;;9.85;4.82;;;;;;;;;;7377422;19;20016;-74
2022/06/27 04:05:03;;;;;;;6.07;3.67;;;;;;;;;;7376851;19;20025;-74
2022/06/27 04:07:29;;;;;;;9.23;4.50;;;;;;;;;;7372854;19;20251;-74
2022/06/27 04:09:54;;;;;;;9.02;5.40;;;;;;;;;;7377188;19;20375;-72
2022/06/27 04:12:19;;;;;;;9.10;5.60;;;;;;;;;;7376183;19;20077;-75
2022/06/27 04:14:45;;;;;;;9.17;5.10;;;;;;;;;;7377408;19;20390;-76
2022/06/27 04:17:10;;;;;;;13.63;6.25;;;;;;;;;;7375011;19;20243;-74
2022/06/27 04:19:35;;;;;;;8.70;5.30;;;;;;;;;;7376016;19;19990;-74
2022/06/27 04:22:01;;;;;;;11.93;5.85;;;;;;;;;;7377604;19;20315;-73
2022/06/27 04:24:26;;;;;;;10.93;5.25;;;;;;;;;;7376776;19;20413;-74
2022/06/27 04:26:51;;;;;;;7.13;4.40;;;;;;;;;;7377946;19;20007;-74
2022/06/27 04:29:16;;;;;;;9.53;4.40;;;;;;;;;;7371971;19;20693;-77
2022/06/27 04:31:42;;;;;;;7.63;4.72;;;;;;;;;;7368015;19;20232;-75
2022/06/27 04:34:07;;;;;;;7.68;3.40;;;;;;;;;;7375399;19;20006;-73
2022/06/27 04:36:32;;;;;;;9.73;4.75;;;;;;;;;;7378253;19;20481;-74
2022/06/27 04:38:58;;;;;;;9.90;4.50;;;;;;;;;;7373016;19;20612;-74
2022/06/27 04:41:25;;;;;;;8.30;4.13;;;;;;;;;;7381300;19;20007;-74
2022/06/27 04:43:52;;;;;;;7.65;3.83;;;;;;;;;;7379455;19;20031;-74
2022/06/27 04:46:18;;;;;;;9.98;4.30;;;;;;;;;;7375466;19;20010;-75
2022/06/27 04:48:45;;;;;;;9.02;4.20;;;;;;;;;;7376808;19;20247;-74
2022/06/27 04:51:11;;;;;;;10.90;4.70;;;;;;;;;;7379158;19;20052;-74
2022/06/27 04:53:37;;;;;;;6.28;3.83;;;;;;;;;;7374593;19;20549;-75
2022/06/27 04:56:03;;;;;;;5.78;3.15;;;;;;;;;;7374355;19;20018;-75
2022/06/27 04:58:28;;;;;;;7.15;3.53;;;;;;;;;;7377965;19;20058;-74
2022/06/27 05:00:54;;;;;;;6.10;3.08;;;;;;;;;;7379606;19;20011;-74
2022/06/27 05:03:22;;;;;;;6.05;3.88;;;;;;;;;;7374548;19;20390;-74
2022/06/27 05:05:47;;;;;;;61.95;10.77;;;;;;;;;;7374361;19;20015;-74
2022/06/27 05:08:12;;;;;;;18.35;9.93;;;;;;;;;;7371396;19;20027;-75
2022/06/27 05:10:38;;;;;;;14.40;9.43;;;;;;;;;;7375400;19;20451;-76
2022/06/27 05:13:04;;;;;;;15.02;9.50;;;;;;;;;;7377525;19;20240;-74
2022/06/27 05:15:29;;;;;;;13.55;9.45;;;;;;;;;;7377613;19;20014;-74
2022/06/27 05:17:54;;;;;;;12.85;9.02;;;;;;;;;;7368099;19;20264;-75
2022/06/27 05:20:20;;;;;;;15.77;11.07;;;;;;;;;;7374150;19;20002;-76
2022/06/27 05:22:45;;;;;;;16.73;11.55;;;;;;;;;;7362031;19;20651;-77
2022/06/27 05:25:10;;;;;;;17.77;12.13;;;;;;;;;;7372413;19;20315;-75
2022/06/27 05:27:35;;;;;;;22.38;12.85;;;;;;;;;;7372975;19;20044;-74
2022/06/27 05:30:04;;;;;;;19.38;11.25;;;;;;;;;;7363794;19;20031;-76
2022/06/27 05:32:29;;;;;;;16.95;11.95;;;;;;;;;;7341537;19;20454;-78
2022/06/27 05:34:54;;;;;;;21.45;13.32;;;;;;;;;;7335469;19;19995;-74
2022/06/27 05:37:20;;;;;;;15.15;10.50;;;;;;;;;;7371278;19;20019;-74
2022/06/27 05:39:46;;;;;;;15.32;10.98;;;;;;;;;;7367403;19;20011;-74
2022/06/27 05:42:11;;;;;;;17.42;11.73;;;;;;;;;;7373446;19;20106;-77
2022/06/27 05:44:36;;;;;;;17.55;12.00;;;;;;;;;;7376122;19;20403;-75
2022/06/27 05:47:02;;;;;;;18.42;12.43;;;;;;;;;;7376003;19;20035;-74
2022/06/27 05:49:27;;;;;;;17.02;11.23;;;;;;;;;;7371356;19;20006;-77
2022/06/27 05:51:54;;;;;;;15.93;11.60;;;;;;;;;;7373840;19;20349;-76
2022/06/27 05:54:21;;;;;;;18.50;11.40;;;;;;;;;;7376139;19;20498;-77
2022/06/27 05:56:46;;;;;;;19.65;12.90;;;;;;;;;;7368779;19;20014;-77
2022/06/27 05:59:12;;;;;;;16.23;12.13;;;;;;;;;;7375925;19;20002;-75
2022/06/27 06:01:39;;;;;;;17.55;12.75;;;;;;;;;;7356733;19;20496;-76
2022/06/27 06:04:06;;;;;;;16.13;12.32;;;;;;;;;;7353984;19;20027;-74
2022/06/27 06:06:31;;;;;;;16.88;11.95;;;;;;;;;;7373888;19;20376;-74
2022/06/27 06:08:57;;;;;;;15.47;11.53;;;;;;;;;;7356909;19;20070;-75
2022/06/27 06:11:23;;;;;;;15.63;12.23;;;;;;;;;;7371742;19;20903;-70
2022/06/27 06:13:48;;;;;;;16.98;12.27;;;;;;;;;;7383070;19;20014;-70
2022/06/27 06:16:16;;;;;;;14.77;10.77;;;;;;;;;;7379993;19;20010;-71
2022/06/27 06:18:42;;;;;;;14.85;10.18;;;;;;;;;;7383723;19;20006;-74
2022/06/27 06:21:07;;;;;;;15.65;10.90;;;;;;;;;;7383113;19;20010;-71
2022/06/27 06:23:32;;;;;;;13.13;9.63;;;;;;;;;;7382238;19;20466;-74
2022/06/27 06:25:58;;;;;;;16.13;11.05;;;;;;;;;;7383565;19;20224;-70
2022/06/27 06:28:24;;;;;;;15.63;10.90;;;;;;;;;;7381380;19;20020;-72
2022/06/27 06:30:49;;;;;;;16.42;10.65;;;;;;;;;;7382210;19;20029;-71
2022/06/27 06:33:14;;;;;;;16.85;11.10;;;;;;;;;;7374005;19;20011;-70
2022/06/27 06:35:39;;;;;;;15.33;10.17;;;;;;;;;;7375488;19;20477;-71
2022/06/27 06:38:06;;;;;;;16.53;10.77;;;;;;;;;;7377960;19;19995;-74
2022/06/27 06:40:31;;;;;;;13.68;9.27;;;;;;;;;;7384605;19;21230;-70
2022/06/27 06:42:57;;;;;;;14.73;10.10;;;;;;;;;;7383147;19;20023;-71
2022/06/27 06:45:22;;;;;;;18.40;10.07;;;;;;;;;;7381466;19;20432;-70
2022/06/27 06:47:49;;;;;;;13.77;10.35;;;;;;;;;;7384747;19;20120;-70
2022/06/27 06:50:18;;;;;;;17.33;9.82;;;;;;;;;;7383548;19;20271;-70
2022/06/27 06:52:44;;;;;;;13.85;10.23;;;;;;;;;;7380130;19;20362;-71
2022/06/27 06:55:09;;;;;;;13.43;9.77;;;;;;;;;;7380717;19;20010;-72
2022/06/27 06:57:35;;;;;;;16.60;9.48;;;;;;;;;;7380713;19;20394;-70
2022/06/27 07:00:00;;;;;;;16.30;9.93;;;;;;;;;;7380190;19;20014;-71
2022/06/27 07:02:26;;;;;;;15.73;11.23;;;;;;;;;;7382454;19;20018;-70
2022/06/27 07:04:52;;;;;;;16.23;10.48;;;;;;;;;;7376730;19;20034;-72
2022/06/27 07:07:19;;;;;;;14.90;10.35;;;;;;;;;;7378279;19;20014;-70
2022/06/27 07:09:44;;;;;;;15.57;9.52;;;;;;;;;;7383826;19;20018;-70
2022/06/27 07:12:10;;;;;;;15.27;9.35;;;;;;;;;;7380178;19;20319;-73
2022/06/27 07:14:35;;;;;;;13.75;8.98;;;;;;;;;;7380207;19;19999;-71
2022/06/27 07:17:00;;;;;;;11.82;8.68;;;;;;;;;;7380432;19;20098;-71
2022/06/27 07:19:26;;;;;;;18.90;10.20;;;;;;;;;;7380235;19;20537;-70
2022/06/27 07:21:52;;;;;;;14.60;9.25;;;;;;;;;;7373932;19;20284;-72
2022/06/27 07:24:17;;;;;;;13.65;8.77;;;;;;;;;;7376976;19;20018;-71
2022/06/27 07:26:43;;;;;;;13.55;9.77;;;;;;;;;;7369576;19;20038;-72
2022/06/27 07:29:09;;;;;;;15.63;10.55;;;;;;;;;;7373378;19;20337;-71
2022/06/27 07:31:34;;;;;;;14.98;9.75;;;;;;;;;;7376666;19;20415;-71
2022/06/27 07:34:00;;;;;;;15.57;9.30;;;;;;;;;;7376105;19;19995;-71
2022/06/27 07:36:26;;;;;;;15.80;10.10;;;;;;;;;;7369487;19;20247;-70
2022/06/27 07:38:53;;;;;;;247.88;20.42;;;;;;;;;;7370242;19;20002;-72
2022/06/27 07:41:20;;;;;;;16.55;9.88;;;;;;;;;;7377023;19;20054;-71
2022/06/27 07:43:46;;;;;;;64.25;10.50;;;;;;;;;;7377621;19;20073;-75
2022/06/27 07:46:12;;;;;;;15.00;9.55;;;;;;;;;;7370675;19;20115;-71
2022/06/27 07:48:37;;;;;;;13.40;9.02;;;;;;;;;;7369485;19;20478;-71
2022/06/27 07:51:03;;;;;;;14.60;9.38;;;;;;;;;;7377128;19;20022;-72
2022/06/27 07:53:29;;;;;;;15.05;10.07;;;;;;;;;;7367925;19;20006;-72
2022/06/27 07:55:55;;;;;;;15.90;9.82;;;;;;;;;;7366746;19;20368;-73
2022/06/27 07:58:33;;;;;;;13.25;9.02;;;;;;;;;;7374395;19;20345;-74
2022/06/27 08:00:59;;;;;;;15.25;10.95;;;;;;;;;;7374565;19;20002;-71
2022/06/27 08:03:36;;;;;;;15.32;9.95;;;;;;;;;;7375276;19;20501;-70
2022/06/27 08:06:09;;;;;;;19.40;11.45;;;;;;;;;;7374609;19;20404;-73
2022/06/27 08:08:36;;;;;;;14.57;10.48;;;;;;;;;;7371273;19;20013;-73
2022/06/27 08:11:02;;;;;;;15.82;10.45;;;;;;;;;;7372532;19;20011;-72
2022/06/27 08:13:28;;;;;;;14.63;10.15;;;;;;;;;;7376257;19;20133;-72
2022/06/27 08:15:54;;;;;;;18.60;11.45;;;;;;;;;;7368938;19;20461;-72
2022/06/27 08:18:19;;;;;;;19.33;12.77;;;;;;;;;;7373799;19;20102;-72
2022/06/27 08:20:46;;;;;;;19.48;12.43;;;;;;;;;;7376963;19;20017;-74
2022/06/27 08:23:11;;;;;;;17.63;12.60;;;;;;;;;;7370737;19;20026;-74
2022/06/27 08:25:37;;;;;;;16.75;12.27;;;;;;;;;;7375015;19;20332;-72
2022/06/27 08:28:03;;;;;;;17.88;11.63;;;;;;;;;;7376092;19;20026;-73
2022/06/27 08:30:28;;;;;;;18.50;12.07;;;;;;;;;;7370678;19;20407;-73
2022/06/27 08:32:55;;;;;;;18.20;12.25;;;;;;;;;;7373655;19;20010;-74
2022/06/27 08:35:21;;;;;;;18.52;11.32;;;;;;;;;;7373768;19;20517;-75
2022/06/27 08:37:47;;;;;;;18.10;12.43;;;;;;;;;;7363062;19;20552;-74
2022/06/27 08:40:13;;;;;;;18.27;10.77;;;;;;;;;;7376635;19;20010;-73
2022/06/27 08:42:40;;;;;;;123.05;15.88;;;;;;;;;;7375406;19;20021;-76
2022/06/27 08:45:07;;;;;;;16.38;10.38;;;;;;;;;;7372699;19;20003;-73
2022/06/27 08:47:32;;;;;;;15.07;10.55;;;;;;;;;;7369532;19;20684;-74
2022/06/27 08:49:57;;;;;;;17.10;10.35;;;;;;;;;;7374865;19;20375;-73
2022/06/27 08:52:22;;;;;;;17.67;10.10;;;;;;;;;;7369763;19;20487;-72
2022/06/27 08:54:51;;;;;;;17.25;9.02;;;;;;;;;;7372984;19;20005;-75
2022/06/27 08:57:18;;;;;;;13.80;9.48;;;;;;;;;;7372592;19;20007;-70
2022/06/27 08:59:44;;;;;;;19.35;10.20;;;;;;;;;;7372500;19;20015;-71
2022/06/27 09:02:09;;;;;;;13.82;9.35;;;;;;;;;;7369760;19;20550;-71
2022/06/27 09:05:02;;;;;;;18.27;10.20;;;;;;;;;;7369463;19;20434;-71
2022/06/27 09:07:45;;;;;;;12.00;8.48;;;;;;;;;;7369859;19;20036;-72
2022/06/27 09:10:29;;;;;;;12.95;8.80;;;;;;;;;;7373732;19;20014;-74
2022/06/27 09:12:56;;;;;;;12.98;8.95;;;;;;;;;;7375577;19;20003;-73
2022/06/27 09:15:22;;;;;;;20.55;9.73;;;;;;;;;;7369193;19;20470;-74
2022/06/27 09:18:02;;;;;;;16.20;9.73;;;;;;;;;;7371876;19;20022;-73
2022/06/27 09:20:44;;;;;;;14.18;9.57;;;;;;;;;;7374450;19;20057;-72
2022/06/27 09:23:25;;;;;;;17.65;10.30;;;;;;;;;;7371401;19;20226;-74
2022/06/27 09:25:56;;;;;;;18.92;9.95;;;;;;;;;;7359957;19;20038;-72
2022/06/27 09:28:21;;;;;;;13.07;9.30;;;;;;;;;;7375908;19;20022;-71
2022/06/27 09:30:46;;;;;;;16.02;10.27;;;;;;;;;;7364935;19;20015;-72
2022/06/27 09:33:11;;;;;;;17.10;10.97;;;;;;;;;;7371180;19;20003;-73
2022/06/27 09:35:39;;;;;;;14.57;10.50;;;;;;;;;;7367868;19;20287;-72
2022/06/27 09:38:07;;;;;;;16.50;10.48;;;;;;;;;;7369607;19;20315;-71
2022/06/27 09:40:33;;;;;;;12.73;10.02;;;;;;;;;;7367625;19;20014;-71
2022/06/27 09:42:59;;;;;;;15.52;11.45;;;;;;;;;;7377297;19;20122;-73
2022/06/27 09:45:25;;;;;;;15.80;11.48;;;;;;;;;;7383287;19;20074;-73
2022/06/27 09:47:58;;;;;;;14.73;10.02;;;;;;;;;;7378660;19;20026;-71
2022/06/27 09:50:24;;;;;;;14.80;10.75;;;;;;;;;;7379055;19;20027;-73
2022/06/27 09:52:50;;;;;;;17.67;11.23;;;;;;;;;;7372713;19;20022;-73
2022/06/27 09:55:18;;;;;;;13.05;9.88;;;;;;;;;;7377174;19;20029;-71
2022/06/27 09:57:43;;;;;;;17.45;11.60;;;;;;;;;;7363804;19;20014;-74
2022/06/27 10:00:10;;;;;;;15.60;10.13;;;;;;;;;;7369927;19;20030;-72
2022/06/27 10:02:35;;;;;;;15.77;10.07;;;;;;;;;;7375412;19;20014;-75
2022/06/27 10:05:00;;;;;;;17.27;9.60;;;;;;;;;;7376317;19;20070;-71
2022/06/27 10:07:26;;;;;;;16.42;11.38;;;;;;;;;;7371646;19;20720;-73
2022/06/27 10:09:52;;;;;;;17.33;10.80;;;;;;;;;;7376754;19;20403;-71
2022/06/27 10:12:36;;;;;;;16.65;11.52;;;;;;;;;;7381897;19;20393;-71
2022/06/27 10:15:01;;;;;;;;;;;;;;;;;;7381449;19;20051;-72
2022/06/27 10:17:28;;;;;;;18.47;11.50;;;;;;;;;;7375384;19;19923;-72
2022/06/27 10:20:00;;;;;;;17.65;11.60;;;;;;;;;;7376659;19;20890;-71
2022/06/27 10:22:26;;;;;;;16.08;10.52;;;;;;;;;;7376405;19;20022;-72
2022/06/27 10:24:51;;;;;;;15.80;10.40;;;;;;;;;;7377492;19;20020;-75
2022/06/27 10:27:29;;;;;;;12.87;9.87;;;;;;;;;;7380742;19;20086;-70
2022/06/27 10:29:55;;;;;;;17.85;10.20;;;;;;;;;;7377913;19;20251;-70
2022/06/27 10:32:41;;;;;;;14.95;10.50;;;;;;;;;;7374931;19;20014;-73
2022/06/27 10:35:09;;;;;;;18.63;11.02;;;;;;;;;;7377726;19;20026;-72
2022/06/27 10:37:35;;;;;;;12.90;9.70;;;;;;;;;;7376524;19;20463;-73
2022/06/27 10:40:18;;;;;;;15.77;9.20;;;;;;;;;;7370254;19;20002;-70
2022/06/27 10:42:43;;;;;;;15.63;10.63;;;;;;;;;;7374109;19;20015;-73
2022/06/27 10:45:21;;;;;;;13.30;10.02;;;;;;;;;;7378569;19;20005;-73
2022/06/27 10:47:57;;;;;;;16.02;11.68;;;;;;;;;;7376751;19;20010;-73
2022/06/27 10:50:23;;;;;;;13.63;10.50;;;;;;;;;;7374161;19;20011;-70
2022/06/27 10:52:49;;;;;;;14.48;10.18;;;;;;;;;;7373835;19;19999;-71
2022/06/27 10:55:24;;;;;;;15.55;10.52;;;;;;;;;;7376119;19;20015;-75
2022/06/27 10:57:49;;;;;;;14.32;9.10;;;;;;;;;;7376422;19;20439;-69
2022/06/27 11:00:33;;;;;;;13.23;9.93;;;;;;;;;;7377184;19;20013;-74
2022/06/27 11:02:59;;;;;;;;;;;;;;;;;;7377134;19;20019;-75
2022/06/27 11:05:24;;;;;;;15.65;9.90;;;;;;;;;;7375023;19;19925;-72
2022/06/27 11:07:50;;;;;;;14.63;9.23;;;;;;;;;;7373052;19;20037;-71
2022/06/27 11:10:16;;;;;;;13.88;9.90;;;;;;;;;;7378915;19;20024;-70
2022/06/27 11:12:41;;;;;;;16.10;9.75;;;;;;;;;;7377598;19;20010;-69
2022/06/27 11:15:09;;;;;;;12.50;9.17;;;;;;;;;;7373192;19;20033;-71
2022/06/27 11:17:41;;;;;;;15.98;9.27;;;;;;;;;;7377515;19;20011;-72
2022/06/27 11:20:12;;;;;;;13.63;8.55;;;;;;;;;;7378715;19;20020;-71
2022/06/27 11:22:37;;;;;;;15.07;9.40;;;;;;;;;;7373744;19;20018;-73
2022/06/27 11:25:03;;;;;;;11.23;8.35;;;;;;;;;;7382199;19;20003;-70
2022/06/27 11:27:48;;;;;;;15.02;10.35;;;;;;;;;;7383323;19;20006;-71
2022/06/27 11:33:09;;;;;;;10.43;6.05;;;;;;;;;;7378581;19;20623;-72
2022/06/27 11:35:34;;;;;;;11.03;7.23;;;;;;;;;;7381393;19;20006;-70
2022/06/27 11:37:59;;;;;;;13.90;7.53;;;;;;;;;;7376069;19;20229;-71
2022/06/27 11:40:25;;;;;;;11.93;8.07;;;;;;;;;;7381982;19;20361;-70
2022/06/27 11:42:52;;;;;;;11.83;7.30;;;;;;;;;;7380376;19;20251;-71
2022/06/27 11:45:17;;;;;;;11.88;6.60;;;;;;;;;;7370745;19;20243;-72
2022/06/27 11:47:45;;;;;;;8.27;5.77;;;;;;;;;;7376132;19;20010;-72
2022/06/27 11:50:14;;;;;;;9.18;5.20;;;;;;;;;;7378118;19;20235;-73
2022/06/27 11:52:39;;;;;;;9.70;5.07;;;;;;;;;;7371453;19;20010;-72
2022/06/27 11:55:06;;;;;;;9.90;5.93;;;;;;;;;;7377490;19;20627;-70
2022/06/27 11:57:34;;;;;;;11.32;6.15;;;;;;;;;;7378410;19;20002;-71
2022/06/27 12:00:01;;;;;;;12.30;7.63;;;;;;;;;;7377974;19;20007;-71
2022/06/27 12:02:27;;;;;;;11.57;7.63;;;;;;;;;;7380417;19;20010;-70
2022/06/27 12:05:06;;;;;;;9.75;6.75;;;;;;;;;;7374275;19;20002;-72
2022/06/27 12:07:47;;;;;;;14.48;7.10;;;;;;;;;;7376642;19;20015;-74
2022/06/27 12:10:13;;;;;;;11.57;5.90;;;;;;;;;;7377031;19;20002;-75
2022/06/27 12:12:43;;;;;;;9.35;7.45;;;;;;;;;;7380680;19;20010;-72
2022/06/27 12:15:18;;;;;;;10.93;7.93;;;;;;;;;;7380403;19;20350;-71
2022/06/27 12:17:43;;;;;;;12.75;7.20;;;;;;;;;;7377437;19;20003;-71
2022/06/27 12:20:09;;;;;;;11.57;9.00;;;;;;;;;;7379597;19;20017;-70
2022/06/27 12:22:34;;;;;;;10.32;7.88;;;;;;;;;;7378166;19;20588;-76
2022/06/27 12:24:59;;;;;;;10.90;6.53;;;;;;;;;;7379352;19;20007;-71
2022/06/27 12:27:24;;;;;;;9.80;5.70;;;;;;;;;;7382837;19;20040;-69
2022/06/27 12:29:50;;;;;;;11.57;5.83;;;;;;;;;;7381044;19;20021;-72
2022/06/27 12:32:15;;;;;;;7.07;4.63;;;;;;;;;;7378428;19;20038;-72
2022/06/27 12:34:40;;;;;;;7.70;3.97;;;;;;;;;;7380726;19;20354;-72
2022/06/27 12:37:06;;;;;;;8.23;3.20;;;;;;;;;;7376839;19;20034;-70
2022/06/27 12:39:31;;;;;;;8.82;3.60;;;;;;;;;;7378757;19;20078;-71
2022/06/27 12:41:56;;;;;;;8.13;4.10;;;;;;;;;;7382611;19;20005;-71
2022/06/27 12:44:22;;;;;;;6.68;3.97;;;;;;;;;;7375141;19;20022;-71
2022/06/27 12:46:47;;;;;;;8.07;4.40;;;;;;;;;;7379018;19;19994;-71
2022/06/27 12:49:12;;;;;;;8.15;4.43;;;;;;;;;;7377337;19;20007;-71
2022/06/27 12:51:38;;;;;;;10.25;4.43;;;;;;;;;;7381994;19;20010;-70
2022/06/27 12:54:03;;;;;;;9.98;4.43;;;;;;;;;;7370464;19;20093;-73
2022/06/27 12:56:28;;;;;;;6.68;3.88;;;;;;;;;;7378912;19;20036;-70
2022/06/27 12:58:53;;;;;;;9.43;3.47;;;;;;;;;;7378551;19;20006;-71
2022/06/27 13:01:19;;;;;;;6.60;3.50;;;;;;;;;;7378119;19;20097;-71
2022/06/27 13:03:44;;;;;;;7.78;3.05;;;;;;;;;;7345584;19;20014;-72
2022/06/27 13:06:10;;;;;;;5.80;3.10;;;;;;;;;;7353998;19;20068;-73
2022/06/27 13:08:35;;;;;;;5.85;2.92;;;;;;;;;;7373672;19;20248;-70
2022/06/27 13:11:00;;;;;;;6.63;2.80;;;;;;;;;;7368014;19;20696;-70
2022/06/27 13:13:25;;;;;;;7.22;2.95;;;;;;;;;;7371636;19;20007;-72
2022/06/27 13:15:51;;;;;;;6.80;2.93;;;;;;;;;;7373294;19;20508;-70
2022/06/27 13:18:17;;;;;;;6.45;2.00;;;;;;;;;;7389436;19;20035;-70
2022/06/27 13:20:42;;;;;;;8.68;2.28;;;;;;;;;;7384505;19;20074;-75
2022/06/27 13:23:07;;;;;;;6.93;1.60;;;;;;;;;;7386902;19;20438;-74
2022/06/27 13:25:32;;;;;;;4.47;1.67;;;;;;;;;;7394136;19;20243;-75
2022/06/27 13:27:58;;;;;;;5.53;1.77;;;;;;;;;;7385745;19;20010;-71
2022/06/27 13:30:23;;;;;;;5.40;1.80;;;;;;;;;;7392728;19;20230;-72
2022/06/27 13:32:48;;;;;;;4.47;1.98;;;;;;;;;;7385337;19;20012;-75
2022/06/27 13:35:14;;;;;;;6.68;1.92;;;;;;;;;;7388963;19;20003;-72
2022/06/27 13:37:39;;;;;;;10.10;1.85;;;;;;;;;;7384314;19;20451;-73
2022/06/27 13:40:05;;;;;;;3.75;1.63;;;;;;;;;;7364625;19;20561;-74
2022/06/27 13:42:32;;;;;;;6.10;1.77;;;;;;;;;;7378758;19;20439;-73
2022/06/27 13:44:57;;;;;;;4.03;1.70;;;;;;;;;;7386310;19;20497;-71
2022/06/27 13:47:22;;;;;;;5.22;1.50;;;;;;;;;;7394734;19;20014;-71
2022/06/27 13:49:50;;;;;;;5.68;1.83;;;;;;;;;;7391972;19;19998;-69
2022/06/27 13:52:15;;;;;;;4.68;1.75;;;;;;;;;;7388289;19;20429;-73
2022/06/27 13:54:40;;;;;;;8.27;1.90;;;;;;;;;;7391963;19;19991;-70
2022/06/27 13:57:05;;;;;;;3.83;1.77;;;;;;;;;;7391712;19;20045;-72
2022/06/27 13:59:30;;;;;;;6.90;2.10;;;;;;;;;;7392645;19;20810;-71
2022/06/27 14:01:55;;;;;;;6.73;2.00;;;;;;;;;;7389089;19;20021;-72
2022/06/27 14:04:21;;;;;;;6.33;1.80;;;;;;;;;;7389912;19;20275;-72
2022/06/27 14:09:30;;;;;;;;;;;;;;;;;;7393076;19;20031;-71
2022/06/27 14:11:55;;;;;;;8.10;2.53;;;;;;;;;;7392141;19;19915;-69
2022/06/27 14:14:20;;;;;;;3.13;1.27;;;;;;;;;;7393140;19;20074;-71
2022/06/27 14:16:45;;;;;;;8.07;1.60;;;;;;;;;;7391753;19;19998;-72
2022/06/27 14:19:11;;;;;;;6.60;1.73;;;;;;;;;;7393292;19;20489;-73
2022/06/27 14:21:36;;;;;;;5.78;1.55;;;;;;;;;;7390656;19;20010;-72
2022/06/27 14:24:01;;;;;;;6.28;1.38;;;;;;;;;;7387785;19;20434;-74
2022/06/27 14:26:27;;;;;;;4.22;1.55;;;;;;;;;;7392476;19;20534;-72
2022/06/27 14:28:52;;;;;;;5.43;1.60;;;;;;;;;;7388741;19;20002;-71
2022/06/27 14:31:17;;;;;;;4.87;1.80;;;;;;;;;;7379314;19;20356;-72
2022/06/27 14:33:42;;;;;;;4.18;1.38;;;;;;;;;;7385110;19;20023;-70
2022/06/27 14:36:09;;;;;;;5.03;1.35;;;;;;;;;;7381881;19;20006;-75